Time;durP1;ratioP1;P1;durP2;ratioP2;P2;SDS_P1;SDS_P2;PMS_P1;PMS_P2;Temp;Humidity;BMP_temperature;BMP_pressure;BME280_temperature;BME280_humidity;BME280_pressure;Samples;Min_cycle;Max_cycle;Signal;HPM_P1;HPM_P2
2022/01/19 10:27:32;;;;;;;15.18;6.85;;;27.30;72.40;;;;;;4194429;28;19912;-67
2022/01/19 10:29:38;;;;;;;10.45;6.55;;;27.30;73.30;;;;;;4208768;28;20073;-67
2022/01/19 10:31:43;;;;;;;12.85;5.88;;;27.30;74.10;;;;;;4203811;28;20048;-67
2022/01/19 10:34:16;;;;;;;10.80;6.53;;;27.30;73.90;;;;;;4206374;28;20048;-67
2022/01/19 10:36:41;;;;;;;15.55;7.15;;;27.30;73.90;;;;;;4204112;28;20046;-66
2022/01/19 10:38:46;;;;;;;12.43;7.07;;;27.20;73.90;;;;;;4206645;28;20097;-66
2022/01/19 10:41:04;;;;;;;20.52;7.30;;;27.20;74.20;;;;;;4154637;28;20160;-66
2022/01/19 10:43:24;;;;;;;23.08;8.40;;;27.20;74.40;;;;;;4159621;28;20061;-66
2022/01/19 10:45:32;;;;;;;17.95;7.07;;;27.20;74.40;;;;;;4173968;28;20589;-67
2022/01/19 10:47:47;;;;;;;20.42;8.40;;;27.10;74.60;;;;;;4171936;28;20038;-66
2022/01/19 10:49:57;;;;;;;28.67;10.75;;;27.10;74.70;;;;;;4173966;28;20055;-67
2022/01/19 10:52:03;;;;;;;23.70;10.23;;;27.10;75.10;;;;;;4172249;28;20049;-66
2022/01/19 10:54:17;;;;;;;14.55;8.75;;;27.00;75.40;;;;;;4172585;28;20080;-67
2022/01/19 10:56:29;;;;;;;20.92;10.43;;;26.90;76.20;;;;;;4170283;28;20060;-66
2022/01/19 10:58:53;;;;;;;23.70;11.55;;;26.90;76.70;;;;;;4172239;28;20053;-67
2022/01/19 11:01:13;;;;;;;22.45;10.82;;;26.90;77.40;;;;;;4170796;28;20053;-67
2022/01/19 11:03:25;;;;;;;25.35;10.90;;;26.90;77.80;;;;;;4171996;28;20053;-66
2022/01/19 11:05:51;;;;;;;16.98;10.52;;;26.80;78.10;;;;;;4147688;28;20252;-66
2022/01/19 11:07:56;;;;;;;18.42;10.55;;;26.80;78.40;;;;;;4169793;28;20057;-65
2022/01/19 11:10:18;;;;;;;43.70;11.18;;;26.70;78.30;;;;;;4155401;28;20057;-64
2022/01/19 11:12:26;;;;;;;29.90;9.95;;;26.70;78.60;;;;;;4193000;28;20718;-66
2022/01/19 11:14:30;;;;;;;19.38;9.57;;;26.60;78.60;;;;;;4205435;28;20100;-66
2022/01/19 11:16:35;;;;;;;19.27;9.25;;;26.60;78.60;;;;;;4204467;28;20056;-66
2022/01/19 11:18:41;;;;;;;21.05;9.52;;;26.60;78.50;;;;;;4187174;28;20045;-65
2022/01/19 11:20:48;;;;;;;30.33;15.52;;;26.60;78.80;;;;;;4205567;28;20566;-66
2022/01/19 11:23:14;;;;;;;49.92;33.85;;;26.60;80.00;;;;;;4189547;28;20051;-67
2022/01/19 11:25:38;;;;;;;52.65;34.05;;;26.50;80.80;;;;;;4176928;28;20053;-66
2022/01/19 11:27:52;;;;;;;45.25;33.08;;;26.50;81.80;;;;;;4204919;28;20461;-66
2022/01/19 11:30:11;;;;;;;52.75;27.73;;;26.40;82.10;;;;;;4208351;28;20047;-67
2022/01/19 11:32:18;;;;;;;39.40;24.77;;;26.50;82.70;;;;;;4205407;28;20042;-67
2022/01/19 11:34:45;;;;;;;43.22;26.13;;;26.40;82.80;;;;;;4205909;28;20048;-68
2022/01/19 11:36:50;;;;;;;42.33;26.35;;;26.40;82.80;;;;;;4204491;28;20105;-67
2022/01/19 11:39:13;;;;;;;47.78;26.88;;;26.40;83.10;;;;;;4169859;28;20044;-64
2022/01/19 11:41:18;;;;;;;37.42;23.60;;;26.40;83.20;;;;;;4168819;28;20133;-66
2022/01/19 11:43:30;;;;;;;43.70;23.65;;;26.30;82.90;;;;;;4170186;28;20053;-66
2022/01/19 11:45:37;;;;;;;40.38;22.60;;;26.30;82.90;;;;;;4168917;28;20037;-66
2022/01/19 11:47:43;;;;;;;43.90;20.63;;;26.30;83.00;;;;;;4170714;28;20068;-65
2022/01/19 11:49:59;;;;;;;41.20;19.50;;;26.30;82.90;;;;;;4168373;28;20053;-66
2022/01/19 11:52:05;;;;;;;37.55;18.52;;;26.30;83.00;;;;;;4171054;28;20111;-65
2022/01/19 11:54:16;;;;;;;38.50;17.40;;;26.20;83.10;;;;;;4154357;28;20407;-66
2022/01/19 11:56:21;;;;;;;36.72;17.08;;;26.20;83.30;;;;;;4169525;28;20219;-66
2022/01/19 11:58:26;;;;;;;33.72;18.48;;;26.20;83.40;;;;;;4168413;28;20068;-65
2022/01/19 12:00:34;;;;;;;42.78;22.58;;;26.20;83.60;;;;;;4168883;28;20373;-65
2022/01/19 12:02:45;;;;;;;42.90;23.85;;;26.10;83.10;;;;;;4171154;28;20510;-66
2022/01/19 12:05:10;;;;;;;44.15;23.15;;;26.10;83.00;;;;;;4168086;28;20049;-66
2022/01/19 12:07:36;;;;;;;39.63;22.17;;;26.10;83.30;;;;;;4172158;28;20800;-66
2022/01/19 12:09:55;;;;;;;45.05;25.73;;;26.10;83.60;;;;;;4180979;28;20063;-66
2022/01/19 12:12:14;;;;;;;40.28;22.58;;;26.00;83.70;;;;;;4190574;28;20045;-65
2022/01/19 12:14:22;;;;;;;39.40;22.90;;;26.00;84.00;;;;;;4191365;28;20059;-65
2022/01/19 12:18:50;;;;;;;38.60;23.52;;;26.00;84.30;;;;;;4206875;28;20040;-66
2022/01/19 12:20:54;;;;;;;41.58;23.38;;;26.00;84.40;;;;;;4205033;28;20811;-67
2022/01/19 12:23:23;;;;;;;40.58;24.73;;;25.90;84.40;;;;;;4201848;28;20043;-66
2022/01/19 12:25:37;;;;;;;40.20;23.52;;;25.90;84.60;;;;;;4206412;28;20048;-66
2022/01/19 12:27:50;;;;;;;40.25;24.73;;;25.90;84.60;;;;;;4172490;28;20073;-66
2022/01/19 12:30:09;;;;;;;39.28;24.52;;;25.80;84.90;;;;;;4193219;28;20413;-66
2022/01/19 12:32:17;;;;;;;37.05;24.38;;;25.80;85.20;;;;;;4186825;28;20052;-67
2022/01/19 12:34:22;;;;;;;40.83;25.05;;;25.70;85.50;;;;;;4187390;28;20071;-66
2022/01/19 12:36:46;;;;;;;53.75;27.00;;;25.80;85.70;;;;;;4185747;28;20036;-68
2022/01/19 12:38:51;;;;;;;47.00;27.35;;;25.80;85.80;;;;;;4187179;28;20048;-65
2022/01/19 12:40:57;;;;;;;46.60;28.27;;;25.70;85.90;;;;;;4187530;28;20071;-67
2022/01/19 12:43:06;;;;;;;48.22;28.90;;;25.70;85.90;;;;;;4187653;28;20052;-67
2022/01/19 12:45:20;;;;;;;54.60;30.30;;;25.70;86.20;;;;;;4187170;28;20048;-66
2022/01/19 12:47:27;;;;;;;54.72;32.15;;;25.70;86.20;;;;;;4186371;28;20052;-67
2022/01/19 12:49:32;;;;;;;54.08;29.73;;;25.70;86.10;;;;;;4188086;28;20044;-66
2022/01/19 12:51:39;;;;;;;53.17;29.23;;;25.60;86.20;;;;;;4191352;28;20052;-64
2022/01/19 12:53:44;;;;;;;54.22;30.15;;;25.60;86.20;;;;;;4172210;28;20115;-66
2022/01/19 12:55:51;;;;;;;54.67;31.60;;;25.60;86.30;;;;;;4170928;28;20091;-65
2022/01/19 12:57:57;;;;;;;61.08;33.63;;;25.60;86.30;;;;;;4190785;28;20044;-67
2022/01/19 13:00:03;;;;;;;57.83;33.53;;;25.60;86.40;;;;;;4208238;28;20130;-66
2022/01/19 13:02:07;;;;;;;63.92;35.00;;;25.60;86.50;;;;;;4206682;28;20134;-66
2022/01/19 13:04:26;;;;;;;65.32;34.08;;;25.60;86.70;;;;;;4207185;28;20071;-67
2022/01/19 13:06:33;;;;;;;57.25;32.97;;;25.60;86.80;;;;;;4205821;28;20040;-66
2022/01/19 13:08:43;;;;;;;62.17;32.40;;;25.60;86.90;;;;;;4203477;28;20032;-68
2022/01/19 13:10:52;;;;;;;65.88;34.60;;;25.50;86.90;;;;;;4203063;28;20044;-68
2022/01/19 13:15:08;;;;;;;69.30;33.93;;;25.40;87.20;;;;;;4155347;28;20041;-67
2022/01/19 13:17:12;;;;;;;59.15;31.90;;;25.40;87.40;;;;;;4168278;28;20045;-67
2022/01/19 13:19:37;;;;;;;67.68;32.33;;;25.40;87.50;;;;;;4169881;28;20648;-67
2022/01/19 13:21:43;;;;;;;58.70;31.75;;;25.40;87.60;;;;;;4168315;28;20049;-68
2022/01/19 13:24:02;;;;;;;53.08;30.27;;;25.40;87.70;;;;;;4172732;28;20809;-67
2022/01/19 13:26:10;;;;;;;50.80;30.17;;;25.30;88.00;;;;;;4173613;28;20049;-66
2022/01/19 13:28:14;;;;;;;57.97;29.17;;;25.30;88.00;;;;;;4158967;28;20048;-68
2022/01/19 13:30:18;;;;;;;55.53;28.73;;;25.30;88.10;;;;;;4173791;28;20480;-68
2022/01/19 13:32:23;;;;;;;53.28;27.75;;;25.30;88.00;;;;;;4174283;28;20049;-67
2022/01/19 13:34:28;;;;;;;50.30;28.10;;;25.30;88.20;;;;;;4173106;28;20648;-67
2022/01/19 13:36:34;;;;;;;62.97;29.45;;;25.30;88.10;;;;;;4161150;28;20140;-68
2022/01/19 13:38:39;;;;;;;53.72;29.88;;;25.30;88.00;;;;;;4173121;28;20497;-67
2022/01/19 13:40:43;;;;;;;51.92;29.98;;;25.30;88.00;;;;;;4175370;28;20072;-66
2022/01/19 13:42:50;;;;;;;58.00;30.52;;;25.30;88.00;;;;;;4171768;28;20052;-66
2022/01/19 13:44:54;;;;;;;54.78;31.70;;;25.20;88.60;;;;;;4203723;28;20066;-66
2022/01/19 13:47:11;;;;;;;51.13;29.13;;;25.20;88.00;;;;;;4208429;28;20044;-66
2022/01/19 13:49:16;;;;;;;47.22;28.77;;;25.20;88.00;;;;;;4211783;28;20058;-66
2022/01/19 13:51:22;;;;;;;55.53;30.35;;;25.20;88.10;;;;;;4208598;28;20155;-67
2022/01/19 13:53:29;;;;;;;52.95;30.80;;;25.10;88.20;;;;;;4210725;28;20036;-67
2022/01/19 13:55:33;;;;;;;65.32;31.92;;;25.10;88.40;;;;;;4211568;28;20044;-66
2022/01/19 13:57:37;;;;;;;66.15;31.25;;;25.10;88.60;;;;;;4208973;28;20040;-67
2022/01/19 13:59:43;;;;;;;57.45;31.63;;;25.10;88.70;;;;;;4214840;28;20103;-69
2022/01/19 14:01:52;;;;;;;65.45;32.25;;;25.00;88.80;;;;;;4210497;28;20136;-68
2022/01/19 14:04:06;;;;;;;58.63;32.28;;;25.00;89.00;;;;;;4212295;28;20048;-67
2022/01/19 14:06:26;;;;;;;63.40;32.50;;;25.00;89.00;;;;;;4211038;28;20059;-68
2022/01/19 14:08:32;;;;;;;57.72;30.48;;;25.00;89.20;;;;;;4198155;28;20458;-67
2022/01/19 14:10:49;;;;;;;54.75;30.25;;;24.90;89.30;;;;;;4209563;28;20578;-67
2022/01/19 14:12:54;;;;;;;62.25;31.40;;;25.00;89.40;;;;;;4208552;28;20087;-67
2022/01/19 14:15:00;;;;;;;59.08;31.33;;;25.00;89.30;;;;;;4207946;28;20482;-67
2022/01/19 14:17:10;;;;;;;57.97;30.38;;;24.90;89.30;;;;;;4207784;28;20044;-67
2022/01/19 14:19:14;;;;;;;51.00;28.23;;;24.90;89.30;;;;;;4208124;28;20055;-67
2022/01/19 14:21:18;;;;;;;51.55;29.30;;;24.90;89.10;;;;;;4209424;28;20741;-69
2022/01/19 14:23:23;;;;;;;53.03;29.00;;;24.90;89.00;;;;;;4207765;28;20044;-67
2022/01/19 14:25:27;;;;;;;52.88;29.48;;;24.90;89.20;;;;;;4207286;28;20048;-66
2022/01/19 14:27:42;;;;;;;49.92;26.85;;;24.90;89.30;;;;;;4208702;28;20391;-66
2022/01/19 14:30:20;;;;;;;45.50;26.55;;;24.80;89.70;;;;;;4208173;28;20067;-67
2022/01/19 14:32:38;;;;;;;44.83;25.90;;;24.60;90.00;;;;;;4208032;28;20047;-66
2022/01/19 14:34:42;;;;;;;49.70;26.77;;;24.60;90.40;;;;;;4208531;28;20044;-67
2022/01/19 14:36:47;;;;;;;51.95;28.45;;;24.60;90.90;;;;;;4205296;28;20142;-67
2022/01/19 14:38:58;;;;;;;51.17;27.48;;;24.50;91.30;;;;;;4209602;28;20062;-66
2022/01/19 14:41:18;;;;;;;44.83;29.27;;;24.60;91.60;;;;;;4208229;28;20054;-67
2022/01/19 14:43:24;;;;;;;50.75;29.58;;;24.60;91.50;;;;;;4208912;28;20384;-67
2022/01/19 14:45:36;;;;;;;47.72;28.60;;;24.60;91.50;;;;;;4208202;28;20736;-67
2022/01/19 14:47:41;;;;;;;51.10;29.05;;;24.70;91.50;;;;;;4208572;28;20467;-67
2022/01/19 14:49:46;;;;;;;46.38;29.38;;;24.70;91.50;;;;;;4208228;28;20055;-67
2022/01/19 14:51:55;;;;;;;52.55;29.20;;;24.60;91.50;;;;;;4208035;28;20081;-67
2022/01/19 14:54:02;;;;;;;48.45;30.55;;;24.60;91.70;;;;;;4204822;28;20537;-66
2022/01/19 14:56:07;;;;;;;52.30;31.23;;;24.60;91.80;;;;;;4206938;28;20036;-67
2022/01/19 14:58:13;;;;;;;53.80;32.65;;;24.60;91.80;;;;;;4208840;28;20048;-67
2022/01/19 15:00:17;;;;;;;54.67;34.55;;;24.60;91.70;;;;;;4207710;28;20098;-67
2022/01/19 15:02:24;;;;;;;53.05;33.10;;;24.60;91.70;;;;;;4208562;28;20125;-67
2022/01/19 15:04:29;;;;;;;57.70;33.55;;;24.60;91.70;;;;;;4190088;28;20125;-67
2022/01/19 15:06:34;;;;;;;59.88;35.85;;;24.60;91.80;;;;;;4209028;28;20738;-67
2022/01/19 15:08:38;;;;;;;62.38;37.10;;;24.50;91.90;;;;;;4208511;28;20506;-68
2022/01/19 15:10:43;;;;;;;57.65;34.00;;;24.50;92.20;;;;;;4207223;28;20082;-69
2022/01/19 15:12:51;;;;;;;60.30;36.53;;;24.50;92.10;;;;;;4205276;28;20119;-66
2022/01/19 15:14:57;;;;;;;64.90;36.22;;;24.50;92.20;;;;;;4208983;28;20040;-67
2022/01/19 15:17:01;;;;;;;56.67;34.35;;;24.50;92.30;;;;;;4207236;28;20127;-67
2022/01/19 15:19:07;;;;;;;52.95;34.55;;;24.40;92.30;;;;;;4207435;28;20395;-67
2022/01/19 15:21:12;;;;;;;53.58;35.50;;;24.40;92.40;;;;;;4208401;28;20981;-66
2022/01/19 15:23:18;;;;;;;55.58;34.30;;;24.40;92.60;;;;;;4208130;28;20060;-67
2022/01/19 15:25:22;;;;;;;59.58;35.20;;;24.40;92.60;;;;;;4190324;28;20076;-67
2022/01/19 15:27:27;;;;;;;64.80;35.45;;;24.40;92.60;;;;;;4208179;28;20064;-68
2022/01/19 15:29:32;;;;;;;62.67;34.95;;;24.40;92.70;;;;;;4209895;28;20631;-66
2022/01/19 15:31:37;;;;;;;60.42;35.83;;;24.40;92.70;;;;;;4208784;28;20052;-67
2022/01/19 15:33:41;;;;;;;62.60;35.70;;;24.40;92.70;;;;;;4208628;28;20044;-66
2022/01/19 15:35:47;;;;;;;66.35;35.45;;;24.30;92.80;;;;;;4208200;28;20071;-67
2022/01/19 15:37:53;;;;;;;61.58;36.33;;;24.10;93.20;;;;;;4208508;28;20040;-68
2022/01/19 15:39:57;;;;;;;64.00;36.13;;;24.10;93.40;;;;;;4189385;28;20135;-68
2022/01/19 15:42:21;;;;;;;66.63;36.03;;;24.10;93.40;;;;;;4208284;28;20417;-67
2022/01/19 15:44:26;;;;;;;60.65;37.28;;;24.10;93.30;;;;;;4207453;28;20125;-67
2022/01/19 15:46:31;;;;;;;63.65;36.92;;;24.20;93.20;;;;;;4208160;28;20058;-67
2022/01/19 15:48:40;;;;;;;61.28;36.58;;;24.20;93.20;;;;;;4190119;28;20044;-67
2022/01/19 15:50:49;;;;;;;60.22;35.90;;;24.10;93.30;;;;;;4208469;28;20515;-68
2022/01/19 15:52:53;;;;;;;67.00;36.50;;;24.10;93.30;;;;;;4207944;28;20052;-67
2022/01/19 15:54:58;;;;;;;54.95;34.67;;;24.10;93.30;;;;;;4207902;28;20105;-68
2022/01/19 15:57:07;;;;;;;57.80;35.75;;;24.20;93.30;;;;;;4207515;28;20105;-67
2022/01/19 15:59:12;;;;;;;59.60;34.67;;;24.20;93.10;;;;;;4208460;28;20051;-68
2022/01/19 16:01:16;;;;;;;57.85;33.65;;;24.10;93.10;;;;;;4190714;28;20055;-68
2022/01/19 16:03:21;;;;;;;57.78;33.55;;;24.20;93.10;;;;;;4207036;28;20052;-67
2022/01/19 16:05:26;;;;;;;57.40;33.63;;;24.20;92.90;;;;;;4189314;28;20045;-68
2022/01/19 16:07:31;;;;;;;57.72;31.65;;;24.20;92.80;;;;;;4208015;28;20052;-67
2022/01/19 16:09:35;;;;;;;50.38;32.00;;;24.20;92.90;;;;;;4190087;28;20080;-68
2022/01/19 16:11:39;;;;;;;54.38;31.95;;;24.20;93.00;;;;;;4189015;28;20553;-67
2022/01/19 16:13:43;;;;;;;59.42;33.17;;;24.10;93.00;;;;;;4207837;28;20101;-67
2022/01/19 16:15:48;;;;;;;51.20;31.15;;;24.10;93.10;;;;;;4207406;28;20044;-67
2022/01/19 16:17:52;;;;;;;50.28;30.83;;;24.10;93.10;;;;;;4205984;28;20461;-67
2022/01/19 16:19:56;;;;;;;49.53;31.42;;;24.00;93.20;;;;;;4189539;28;20135;-67
2022/01/19 16:22:01;;;;;;;52.72;31.55;;;24.00;93.20;;;;;;4207612;28;20074;-68
2022/01/19 16:26:22;;;;;;;48.40;30.60;;;23.90;93.40;;;;;;4172148;28;20076;-67
2022/01/19 16:28:27;;;;;;;46.50;30.10;;;23.90;93.40;;;;;;4155812;28;20119;-67
2022/01/19 16:30:32;;;;;;;48.42;29.00;;;23.90;93.30;;;;;;4171281;28;20057;-67
2022/01/19 16:32:36;;;;;;;38.08;25.42;;;23.90;93.20;;;;;;4172518;28;20060;-67
2022/01/19 16:34:40;;;;;;;40.80;24.02;;;23.90;92.60;;;;;;4171501;28;20049;-68
2022/01/19 16:36:45;;;;;;;36.70;24.17;;;23.90;92.20;;;;;;4170727;28;20059;-68
2022/01/19 16:38:49;;;;;;;37.40;22.02;;;23.90;92.20;;;;;;4171908;28;20056;-67
2022/01/19 16:40:55;;;;;;;37.50;20.88;;;24.00;91.80;;;;;;4171994;28;20344;-67
2022/01/19 16:43:02;;;;;;;29.77;18.85;;;23.90;91.60;;;;;;4171718;28;20048;-67
2022/01/19 16:45:06;;;;;;;24.08;16.85;;;23.90;91.10;;;;;;4172104;28;20057;-67
2022/01/19 16:47:12;;;;;;;27.58;16.15;;;23.90;90.80;;;;;;4170717;28;20040;-67
2022/01/19 16:49:20;;;;;;;27.95;16.70;;;23.90;90.60;;;;;;4171493;28;20045;-67
2022/01/19 16:51:24;;;;;;;22.80;15.63;;;23.90;90.70;;;;;;4170229;28;20735;-67
2022/01/19 16:53:31;;;;;;;23.13;15.15;;;23.90;90.50;;;;;;4171129;28;20053;-67
2022/01/19 16:55:36;;;;;;;20.83;13.95;;;23.80;90.50;;;;;;4192487;28;20044;-67
2022/01/19 16:57:40;;;;;;;24.35;15.60;;;23.90;90.30;;;;;;4207543;28;20589;-67
2022/01/19 16:59:45;;;;;;;24.35;14.95;;;23.80;90.30;;;;;;4209705;28;20046;-67
2022/01/19 17:01:50;;;;;;;25.50;14.80;;;23.90;90.30;;;;;;4206956;28;20567;-67
2022/01/19 17:03:55;;;;;;;26.38;14.15;;;23.90;90.30;;;;;;4189761;28;20044;-68
2022/01/19 17:06:00;;;;;;;21.00;14.30;;;23.80;90.50;;;;;;4188925;28;20048;-67
2022/01/19 17:08:05;;;;;;;24.88;14.18;;;23.80;90.40;;;;;;4207250;28;20075;-67
2022/01/19 17:10:11;;;;;;;21.50;13.98;;;23.70;90.40;;;;;;4206795;28;20498;-67
2022/01/19 17:12:20;;;;;;;27.63;14.27;;;23.80;90.40;;;;;;4207643;28;20040;-68
2022/01/19 17:14:32;;;;;;;28.00;14.23;;;23.70;90.40;;;;;;4206957;28;20084;-67
2022/01/19 17:16:47;;;;;;;24.95;16.83;;;23.70;90.60;;;;;;4206741;28;20067;-66
2022/01/19 17:18:51;;;;;;;21.27;13.77;;;23.60;90.60;;;;;;4207343;28;20109;-67
2022/01/19 17:20:55;;;;;;;22.88;14.00;;;23.60;90.60;;;;;;4210665;28;20047;-66
2022/01/19 17:23:00;;;;;;;20.58;14.10;;;23.60;90.50;;;;;;4210871;28;20059;-66
2022/01/19 17:25:05;;;;;;;21.50;12.50;;;23.60;90.40;;;;;;4210204;28;20460;-67
2022/01/19 17:27:09;;;;;;;22.65;12.48;;;23.50;90.30;;;;;;4210073;28;20070;-67
2022/01/19 17:29:15;;;;;;;18.90;11.65;;;23.50;90.30;;;;;;4211994;28;20502;-67
2022/01/19 17:31:19;;;;;;;16.77;11.32;;;23.50;90.40;;;;;;4210931;28;20135;-67
2022/01/19 17:33:24;;;;;;;20.35;11.40;;;23.50;90.40;;;;;;4210403;28;20043;-66
2022/01/19 17:35:28;;;;;;;24.15;12.75;;;23.50;90.40;;;;;;4210714;28;20055;-67
2022/01/19 17:37:32;;;;;;;18.67;11.15;;;23.50;90.40;;;;;;4210259;28;20036;-67
2022/01/19 17:39:36;;;;;;;13.23;10.18;;;23.50;90.30;;;;;;4210851;28;20160;-67
2022/01/19 17:41:40;;;;;;;13.43;10.48;;;23.50;90.20;;;;;;4210512;28;20680;-67
2022/01/19 17:43:45;;;;;;;12.40;10.27;;;23.50;90.10;;;;;;4210567;28;20040;-67
2022/01/19 17:46:06;;;;;;;18.08;10.00;;;23.50;90.20;;;;;;4209896;28;20442;-67
2022/01/19 17:52:54;;;;;;;15.43;9.30;;;23.40;90.30;;;;;;4210791;28;20043;-67
2022/01/19 17:54:59;;;;;;;12.25;10.05;;;23.40;90.40;;;;;;4209719;28;20048;-67
2022/01/19 17:57:05;;;;;;;13.32;9.43;;;23.30;90.60;;;;;;4208741;28;20044;-67
2022/01/19 17:59:09;;;;;;;13.77;9.30;;;23.10;90.60;;;;;;4191673;28;20739;-67
2022/01/19 18:01:17;;;;;;;15.02;9.57;;;23.20;90.60;;;;;;4210465;28;20040;-68
2022/01/19 18:03:23;;;;;;;12.75;9.60;;;23.20;90.60;;;;;;4208689;28;20036;-67
2022/01/19 18:05:28;;;;;;;17.00;9.32;;;23.20;90.50;;;;;;4209732;28;20547;-68
2022/01/19 18:07:33;;;;;;;12.30;9.00;;;23.30;90.40;;;;;;4209004;28;20052;-67
2022/01/19 18:09:37;;;;;;;12.82;8.88;;;23.30;90.30;;;;;;4209720;28;20055;-67
2022/01/19 18:11:42;;;;;;;12.82;9.35;;;23.30;90.30;;;;;;4209407;28;20058;-67
2022/01/19 18:13:46;;;;;;;11.57;8.80;;;23.30;90.30;;;;;;4209471;28;20139;-67
2022/01/19 18:15:50;;;;;;;16.52;9.27;;;23.30;90.20;;;;;;4209780;28;20158;-67
2022/01/19 18:17:55;;;;;;;14.25;8.82;;;23.30;90.30;;;;;;4206541;28;20097;-67
2022/01/19 18:19:59;;;;;;;11.93;8.95;;;23.30;90.30;;;;;;4191925;28;20075;-68
2022/01/19 18:22:09;;;;;;;14.80;9.15;;;23.30;90.30;;;;;;4209303;28;20048;-67
2022/01/19 18:24:15;;;;;;;13.55;9.57;;;23.20;90.50;;;;;;4208983;28;20681;-66
2022/01/19 18:26:20;;;;;;;13.95;9.70;;;23.20;90.60;;;;;;4209789;28;20044;-67
2022/01/19 18:28:24;;;;;;;13.45;9.55;;;23.10;90.80;;;;;;4209023;28;20063;-66
2022/01/19 18:30:29;;;;;;;15.98;9.70;;;23.10;90.90;;;;;;4209435;28;20130;-67
2022/01/19 18:32:37;;;;;;;13.88;9.35;;;23.10;90.90;;;;;;4209798;28;20058;-68
2022/01/19 18:34:41;;;;;;;13.07;9.27;;;23.00;90.90;;;;;;4209916;28;20062;-66
2022/01/19 18:36:46;;;;;;;15.00;9.52;;;23.00;90.80;;;;;;4207557;28;20052;-66
2022/01/19 18:38:51;;;;;;;13.70;9.65;;;23.00;90.70;;;;;;4209931;28;20071;-66
2022/01/19 18:40:56;;;;;;;12.52;9.50;;;23.00;90.80;;;;;;4209384;28;20139;-66
2022/01/19 18:43:02;;;;;;;11.88;9.48;;;23.00;90.80;;;;;;4209629;28;20078;-66
2022/01/19 18:45:07;;;;;;;15.45;8.98;;;23.00;90.70;;;;;;4208062;28;20055;-67
2022/01/19 18:47:11;;;;;;;12.77;8.70;;;22.90;90.60;;;;;;4209215;28;20082;-68
2022/01/19 18:49:16;;;;;;;14.25;9.15;;;22.90;90.70;;;;;;4209029;28;20075;-67
2022/01/19 18:51:20;;;;;;;13.07;9.00;;;22.90;90.80;;;;;;4209371;28;20086;-68
2022/01/19 18:53:24;;;;;;;13.60;8.45;;;22.90;90.70;;;;;;4207742;28;20499;-67
2022/01/19 18:55:28;;;;;;;14.57;9.20;;;22.90;90.70;;;;;;4191332;28;20048;-67
2022/01/19 18:57:33;;;;;;;16.02;10.35;;;22.90;90.70;;;;;;4190971;28;20774;-68
2022/01/19 18:59:37;;;;;;;13.85;9.13;;;22.70;90.80;;;;;;4208846;28;20688;-67
2022/01/19 19:01:46;;;;;;;11.85;9.00;;;22.50;91.20;;;;;;4208292;28;20076;-67
2022/01/19 19:03:51;;;;;;;10.13;8.57;;;22.50;91.40;;;;;;4208609;28;20494;-67
2022/01/19 19:05:56;;;;;;;11.55;8.70;;;22.60;91.20;;;;;;4209556;28;20063;-68
2022/01/19 19:08:01;;;;;;;11.52;9.27;;;22.50;91.20;;;;;;4208403;28;20097;-68
2022/01/19 19:12:19;;;;;;;15.43;8.70;;;22.50;91.10;;;;;;4208669;28;20068;-68
2022/01/19 19:14:23;;;;;;;16.73;9.35;;;22.60;91.20;;;;;;4209186;28;20051;-68
2022/01/19 19:16:27;;;;;;;13.38;9.82;;;22.50;91.00;;;;;;4190646;28;20074;-68
2022/01/19 19:18:32;;;;;;;14.00;9.30;;;22.50;91.10;;;;;;4207976;28;20118;-68
2022/01/19 19:20:36;;;;;;;15.40;9.48;;;22.60;91.00;;;;;;4208583;28;20040;-68
2022/01/19 19:22:44;;;;;;;11.55;8.95;;;22.70;91.00;;;;;;4208574;28;20858;-68
2022/01/19 19:24:49;;;;;;;13.88;9.43;;;22.60;91.00;;;;;;4191574;28;20132;-68
2022/01/19 19:26:54;;;;;;;11.40;9.27;;;22.60;91.10;;;;;;4190529;28;20052;-68
2022/01/19 19:28:59;;;;;;;11.57;8.95;;;22.60;91.10;;;;;;4209370;28;20054;-68
2022/01/19 19:31:03;;;;;;;12.88;8.85;;;22.60;91.10;;;;;;4209098;28;20604;-67
2022/01/19 19:33:08;;;;;;;12.15;9.05;;;22.60;91.00;;;;;;4207774;28;20062;-68
2022/01/19 19:35:14;;;;;;;14.13;9.73;;;22.50;91.40;;;;;;4208381;28;20047;-68
2022/01/19 19:37:18;;;;;;;13.55;9.30;;;22.50;91.10;;;;;;4208440;28;20071;-67
2022/01/19 19:39:24;;;;;;;13.68;8.90;;;22.50;91.20;;;;;;4208050;28;20440;-67
2022/01/19 19:41:29;;;;;;;11.93;8.85;;;22.50;91.20;;;;;;4208416;28;20067;-67
2022/01/19 19:43:36;;;;;;;12.95;9.02;;;22.50;91.30;;;;;;4207929;28;20052;-67
2022/01/19 19:45:41;;;;;;;11.35;8.30;;;22.50;91.20;;;;;;4209078;28;20066;-68
2022/01/19 19:47:47;;;;;;;15.27;8.93;;;22.50;91.30;;;;;;4208004;28;20076;-68
2022/01/19 19:49:51;;;;;;;15.23;8.68;;;22.50;91.30;;;;;;4208591;28;20131;-67
2022/01/19 19:51:56;;;;;;;10.27;8.27;;;22.50;91.30;;;;;;4208159;28;20063;-66
2022/01/19 19:54:00;;;;;;;11.80;8.40;;;22.40;91.30;;;;;;4207861;28;20147;-67
2022/01/19 19:56:05;;;;;;;11.57;8.45;;;22.40;91.30;;;;;;4208709;28;20048;-67
2022/01/19 19:58:09;;;;;;;11.75;8.00;;;22.40;91.30;;;;;;4206805;28;20475;-67
2022/01/19 20:00:17;;;;;;;12.30;8.10;;;22.40;91.30;;;;;;4207719;28;20449;-67
2022/01/19 20:02:22;;;;;;;11.43;8.30;;;22.40;91.40;;;;;;4207929;28;20397;-67
2022/01/19 20:04:26;;;;;;;11.93;8.10;;;22.30;91.40;;;;;;4208136;28;20502;-68
2022/01/19 20:06:31;;;;;;;9.57;8.18;;;22.30;91.40;;;;;;4208697;28;20148;-67
2022/01/19 20:08:35;;;;;;;11.57;7.72;;;22.30;91.50;;;;;;4208098;28;20798;-67
2022/01/19 20:10:39;;;;;;;12.32;7.68;;;22.20;91.40;;;;;;4206646;28;20068;-68
2022/01/19 20:12:45;;;;;;;11.98;8.15;;;22.20;91.50;;;;;;4208163;28;20052;-67
2022/01/19 20:14:49;;;;;;;10.98;8.07;;;22.20;91.60;;;;;;4207635;28;20047;-68
2022/01/19 20:16:53;;;;;;;10.98;8.55;;;22.20;91.80;;;;;;4207886;28;20048;-68
2022/01/19 20:19:01;;;;;;;13.10;8.38;;;22.20;91.50;;;;;;4189925;28;20051;-68
2022/01/19 20:21:07;;;;;;;9.13;7.47;;;22.20;91.60;;;;;;4208202;28;20565;-67
2022/01/19 20:23:15;;;;;;;10.35;8.32;;;22.10;91.70;;;;;;4208336;28;20048;-68
2022/01/19 20:25:19;;;;;;;13.90;8.32;;;22.10;91.60;;;;;;4189882;28;20052;-66
2022/01/19 20:27:24;;;;;;;9.45;7.75;;;22.10;91.50;;;;;;4207481;28;20510;-66
2022/01/19 20:29:28;;;;;;;12.23;8.15;;;22.20;91.60;;;;;;4206369;28;20075;-66
2022/01/19 20:31:32;;;;;;;10.23;8.27;;;22.10;91.60;;;;;;4207726;28;20742;-66
2022/01/19 20:33:36;;;;;;;11.32;8.00;;;22.10;91.70;;;;;;4206315;28;20995;-66
2022/01/19 20:35:41;;;;;;;10.10;8.15;;;22.10;91.60;;;;;;4208067;28;20055;-66
2022/01/19 20:37:46;;;;;;;10.98;8.40;;;22.10;91.70;;;;;;4207451;28;20131;-66
2022/01/19 20:39:50;;;;;;;10.98;8.70;;;22.00;91.70;;;;;;4207924;28;20059;-66
2022/01/19 20:41:55;;;;;;;10.30;7.90;;;22.10;91.70;;;;;;4207557;28;20092;-66
2022/01/19 20:44:00;;;;;;;12.00;7.63;;;22.10;91.60;;;;;;4189669;28;20060;-67
2022/01/19 20:46:05;;;;;;;12.73;8.68;;;22.10;91.60;;;;;;4207619;28;20554;-68
2022/01/19 20:48:09;;;;;;;15.45;8.77;;;22.10;91.70;;;;;;4206754;28;20056;-67
2022/01/19 20:50:13;;;;;;;13.18;9.25;;;22.00;91.70;;;;;;4207646;28;20663;-68
2022/01/19 20:52:18;;;;;;;19.05;9.57;;;22.00;91.80;;;;;;4207534;28;20048;-67
2022/01/19 20:54:22;;;;;;;15.30;9.10;;;21.90;91.90;;;;;;4207708;28;20155;-67
2022/01/19 20:56:27;;;;;;;19.05;10.38;;;22.00;92.00;;;;;;4206965;28;20113;-67
2022/01/19 20:58:31;;;;;;;19.67;10.48;;;21.90;92.00;;;;;;4207357;28;20559;-67
2022/01/19 21:00:36;;;;;;;19.92;10.25;;;21.90;92.00;;;;;;4188111;28;20595;-67
2022/01/19 21:02:41;;;;;;;20.60;9.90;;;21.90;92.10;;;;;;4207910;28;20432;-67
2022/01/19 21:04:46;;;;;;;24.30;10.88;;;21.90;92.10;;;;;;4206954;28;20048;-67
2022/01/19 21:06:50;;;;;;;19.77;9.70;;;21.90;92.10;;;;;;4207518;28;20040;-67
2022/01/19 21:08:55;;;;;;;19.25;9.80;;;21.80;92.10;;;;;;4208252;28;20052;-67
2022/01/19 21:10:59;;;;;;;18.88;9.77;;;21.80;92.30;;;;;;4206345;28;20048;-67
2022/01/19 21:13:04;;;;;;;20.77;10.38;;;21.80;92.20;;;;;;4207351;28;20055;-66
2022/01/19 21:15:10;;;;;;;20.77;10.02;;;21.80;92.20;;;;;;4206868;28;20143;-67
2022/01/19 21:17:14;;;;;;;17.75;9.80;;;21.70;92.20;;;;;;4193610;28;20508;-67
2022/01/19 21:19:19;;;;;;;17.58;10.68;;;21.70;92.20;;;;;;4206207;28;20048;-67
2022/01/19 21:21:23;;;;;;;18.75;11.88;;;21.70;92.10;;;;;;4207980;28;20052;-67
2022/01/19 21:23:28;;;;;;;19.90;10.85;;;21.70;92.00;;;;;;4206300;28;20067;-67
2022/01/19 21:25:32;;;;;;;19.48;11.32;;;21.70;92.00;;;;;;4207104;28;20506;-66
2022/01/19 21:27:37;;;;;;;21.95;11.25;;;21.80;92.00;;;;;;4207185;28;20067;-66
2022/01/19 21:29:42;;;;;;;21.73;11.55;;;21.70;92.00;;;;;;4207227;28;20060;-67